createdAt,value
2017-07-28T06:51:20.339Z,933.61
2017-07-28T06:52:33.586Z,933.6
2017-07-28T06:53:46.800Z,933.64
2017-07-28T06:54:59.508Z,933.65
2017-07-28T06:56:12.747Z,933.61
2017-07-28T06:57:25.951Z,933.66
2017-07-28T06:58:39.197Z,933.65
2017-07-28T06:59:52.454Z,933.67
2017-07-28T07:01:05.663Z,933.66
2017-07-28T07:02:18.883Z,933.66
2017-07-28T07:03:31.589Z,933.73
2017-07-28T07:04:44.765Z,933.75
2017-07-28T07:05:57.479Z,933.78
2017-07-28T07:07:10.699Z,933.76
2017-07-28T07:08:23.436Z,933.78
2017-07-28T07:09:36.634Z,933.78
2017-07-28T07:10:49.849Z,933.76
2017-07-28T07:12:03.085Z,933.82
2017-07-28T07:13:15.823Z,933.85
2017-07-28T07:14:28.509Z,933.82
2017-07-28T07:15:41.196Z,933.86
2017-07-28T07:16:54.457Z,933.86
2017-07-28T07:18:07.681Z,933.89
2017-07-28T07:19:20.400Z,933.89
2017-07-28T07:20:33.626Z,933.91
2017-07-28T07:21:46.855Z,933.95
2017-07-28T07:23:00.075Z,933.98
2017-07-28T07:24:13.271Z,934
2017-07-28T07:25:26.498Z,933.97
2017-07-28T07:26:39.702Z,933.97
2017-07-28T07:27:52.409Z,933.97
2017-07-28T07:29:05.615Z,933.97
2017-07-28T07:30:18.846Z,933.99
2017-07-28T07:31:32.079Z,933.97
2017-07-28T07:32:44.785Z,933.98
2017-07-28T07:33:58.010Z,933.95
2017-07-28T07:35:10.702Z,933.95
2017-07-28T07:36:23.413Z,933.92
2017-07-28T07:38:07.817Z,933.92
2017-07-28T07:39:19.489Z,933.88
2017-07-28T07:40:32.693Z,933.88
2017-07-28T07:41:45.883Z,933.87
2017-07-28T07:42:58.548Z,933.88
2017-07-28T07:44:11.264Z,933.89
2017-07-28T07:45:24.013Z,933.91
2017-07-28T07:46:37.202Z,933.87
2017-07-28T07:47:50.431Z,933.9
2017-07-28T07:49:03.667Z,933.93
2017-07-28T07:50:16.911Z,933.93
2017-07-28T07:51:30.111Z,933.98
2017-07-28T07:52:42.816Z,933.95
2017-07-28T07:53:55.008Z,933.92
2017-07-28T07:55:08.198Z,933.91
2017-07-28T07:56:21.402Z,933.95
2017-07-28T07:57:34.111Z,933.97
2017-07-28T07:58:46.856Z,933.91
2017-07-28T07:59:59.541Z,933.99
2017-07-28T08:01:12.256Z,933.9
2017-07-28T08:02:25.473Z,933.93
2017-07-28T08:03:38.208Z,933.92
2017-07-28T08:04:51.427Z,933.98
2017-07-28T08:06:04.631Z,933.95
2017-07-28T08:07:16.831Z,933.98
2017-07-28T08:08:29.517Z,933.99
2017-07-28T08:09:42.703Z,934.04
2017-07-28T08:10:55.402Z,934.05
2017-07-28T08:12:08.615Z,934.03
2017-07-28T08:13:21.829Z,934.07
2017-07-28T08:14:34.474Z,934.07
2017-07-28T08:15:47.223Z,934.06
2017-07-28T08:17:00.414Z,934.05
2017-07-28T08:18:13.094Z,934.07
2017-07-28T08:19:26.332Z,934.1
2017-07-28T08:20:39.532Z,934.13
2017-07-28T08:21:52.259Z,934.09
2017-07-28T08:23:04.979Z,934.14
2017-07-28T08:24:18.217Z,934.17
2017-07-28T08:25:31.445Z,934.13
2017-07-28T08:26:44.157Z,934.13
2017-07-28T08:27:56.353Z,934.18
2017-07-28T08:29:08.562Z,934.21
2017-07-28T08:30:21.279Z,934.18
2017-07-28T08:32:05.141Z,934.2
2017-07-28T08:33:17.313Z,934.21
2017-07-28T08:34:30.552Z,934.24
2017-07-28T08:35:43.744Z,934.15
2017-07-28T08:36:56.941Z,934.2
2017-07-28T08:38:09.645Z,934.24
2017-07-28T08:39:22.884Z,934.24
2017-07-28T08:40:36.115Z,934.27
2017-07-28T08:41:49.322Z,934.27
2017-07-28T08:43:02.537Z,934.28
2017-07-28T08:44:15.745Z,934.2
2017-07-28T08:45:28.967Z,934.29
2017-07-28T08:46:42.215Z,934.17
2017-07-28T08:47:55.438Z,934.26
2017-07-28T08:49:08.651Z,934.22
2017-07-28T08:50:21.851Z,934.3
2017-07-28T08:51:34.553Z,934.29
2017-07-28T08:52:46.805Z,934.24
2017-07-28T08:53:59.550Z,934.29
2017-07-28T08:55:12.736Z,934.33
2017-07-28T08:56:25.430Z,934.31
2017-07-28T08:57:38.666Z,934.25
2017-07-28T08:58:51.892Z,934.35
2017-07-28T09:00:05.132Z,934.41
2017-07-28T09:01:18.337Z,934.47
2017-07-28T09:02:31.572Z,934.41
2017-07-28T09:03:43.262Z,934.48
2017-07-28T09:04:55.471Z,934.43
2017-07-28T09:06:08.180Z,934.48
2017-07-28T09:07:20.911Z,934.41
2017-07-28T09:08:33.103Z,934.46
2017-07-28T09:09:46.327Z,934.45
2017-07-28T09:10:59.551Z,934.48
2017-07-28T09:12:11.782Z,934.46
2017-07-28T09:13:24.976Z,934.48
2017-07-28T09:14:37.704Z,934.42
2017-07-28T09:15:50.419Z,934.46
2017-07-28T09:17:03.624Z,934.54
2017-07-28T09:18:16.878Z,934.45
2017-07-28T09:19:30.071Z,934.43
2017-07-28T09:20:42.786Z,934.46
2017-07-28T09:21:55.005Z,934.49
2017-07-28T09:23:08.237Z,934.51
2017-07-28T09:24:20.979Z,934.55
2017-07-28T09:25:33.705Z,934.43
2017-07-28T09:26:46.910Z,934.46
2017-07-28T09:27:59.586Z,934.51
2017-07-28T09:29:11.785Z,934.5
2017-07-28T09:30:23.980Z,934.54
2017-07-28T09:31:36.682Z,934.54
2017-07-28T09:32:49.921Z,934.51
2017-07-28T09:34:03.140Z,934.5
2017-07-28T09:35:16.379Z,934.56
2017-07-28T09:36:28.587Z,934.54
2017-07-28T09:37:41.790Z,934.51
2017-07-28T09:38:54.509Z,934.57
2017-07-28T09:40:07.747Z,934.56
2017-07-28T09:41:20.452Z,934.57
2017-07-28T09:42:33.673Z,934.58
2017-07-28T09:43:46.386Z,934.54
2017-07-28T09:44:59.042Z,934.6
2017-07-28T09:46:12.263Z,934.49
2017-07-28T09:47:25.494Z,934.61
2017-07-28T09:48:37.639Z,934.62
2017-07-28T09:49:49.344Z,934.64
2017-07-28T09:51:02.553Z,934.6
2017-07-28T09:52:15.750Z,934.56
2017-07-28T09:53:28.474Z,934.68
2017-07-28T09:54:40.645Z,934.67
2017-07-28T09:55:53.323Z,934.7
2017-07-28T09:57:06.061Z,934.64
2017-07-28T09:58:18.764Z,934.68
2017-07-28T09:59:31.929Z,934.7
2017-07-28T10:00:45.168Z,934.74
2017-07-28T10:01:57.895Z,934.76
2017-07-28T10:03:11.081Z,934.74
2017-07-28T10:04:24.338Z,934.75
2017-07-28T10:05:37.557Z,934.85
2017-07-28T10:06:50.764Z,934.76
2017-07-28T10:08:03.455Z,934.89
2017-07-28T10:09:16.692Z,934.8
2017-07-28T10:10:29.922Z,934.85
2017-07-28T10:11:43.193Z,934.89
2017-07-28T10:12:57.137Z,934.87
2017-07-28T10:14:11.075Z,934.81
2017-07-28T10:15:24.982Z,934.83
2017-07-28T10:16:38.899Z,934.86
2017-07-28T10:17:52.251Z,934.83
2017-07-28T10:19:05.602Z,934.93
2017-07-28T10:20:19.538Z,934.93
2017-07-28T10:21:32.359Z,934.94
2017-07-28T10:22:45.741Z,934.93
2017-07-28T10:23:59.129Z,934.93
2017-07-28T10:25:12.507Z,934.95
2017-07-28T10:26:26.414Z,934.99
2017-07-28T10:27:40.355Z,935.03
2017-07-28T10:28:54.300Z,935.03
2017-07-28T10:30:08.233Z,935.06
2017-07-28T10:31:21.614Z,935.05
2017-07-28T10:32:35.541Z,935.03
2017-07-28T10:33:48.335Z,935.09
2017-07-28T10:35:02.243Z,935.15
2017-07-28T10:36:15.581Z,935.19
2017-07-28T10:37:29.480Z,935.15
2017-07-28T10:38:43.412Z,935.2
2017-07-28T10:39:56.780Z,935.2
2017-07-28T10:41:09.592Z,935.25
2017-07-28T10:42:23.517Z,935.23
2017-07-28T10:43:36.321Z,935.27
2017-07-28T10:44:49.115Z,935.13
2017-07-28T10:46:03.030Z,935.34
2017-07-28T10:47:16.410Z,935.32
2017-07-28T10:48:30.350Z,935.36
2017-07-28T10:49:44.249Z,935.35
2017-07-28T10:50:58.161Z,935.29
2017-07-28T10:52:12.102Z,935.35
2017-07-28T10:53:26.025Z,935.4
2017-07-28T10:54:39.965Z,935.4
2017-07-28T10:55:53.878Z,935.42
2017-07-28T10:57:07.836Z,935.44
2017-07-28T10:58:21.202Z,935.47
2017-07-28T10:59:34.609Z,935.44
2017-07-28T11:00:48.529Z,935.46
2017-07-28T11:02:02.410Z,935.38
2017-07-28T11:03:15.794Z,935.42
2017-07-28T11:04:29.189Z,935.5
2017-07-28T11:05:43.112Z,935.43
2017-07-28T11:06:57.014Z,935.5
2017-07-28T11:08:10.370Z,935.52
2017-07-28T11:09:24.304Z,935.45
2017-07-28T11:10:38.240Z,935.56
2017-07-28T11:11:51.589Z,935.49
2017-07-28T11:13:05.508Z,935.51
2017-07-28T11:16:03.281Z,935.56
2017-07-28T11:17:16.052Z,935.61
2017-07-28T11:18:29.935Z,935.65
2017-07-28T11:19:43.868Z,935.62
2017-07-28T11:20:57.216Z,935.63
2017-07-28T11:22:10.602Z,935.66
2017-07-28T11:23:23.983Z,935.54
2017-07-28T11:24:36.769Z,935.56
2017-07-28T11:25:50.705Z,935.72
2017-07-28T11:27:03.557Z,935.62
2017-07-28T11:28:16.933Z,935.64
2017-07-28T11:29:30.874Z,935.74
2017-07-28T11:30:44.821Z,935.71
2017-07-28T11:31:58.208Z,935.68
2017-07-28T11:33:12.137Z,935.73
2017-07-28T11:34:26.075Z,935.77
2017-07-28T11:35:40.061Z,935.78
2017-07-28T11:36:53.997Z,935.69
2017-07-28T11:38:07.949Z,935.8
2017-07-28T11:39:21.366Z,935.77
2017-07-28T11:40:33.641Z,935.86
2017-07-28T11:41:47.629Z,935.86
2017-07-28T11:43:01.576Z,935.85
2017-07-28T11:44:14.944Z,935.83
2017-07-28T11:45:27.740Z,935.86
2017-07-28T11:46:41.671Z,936.01
2017-07-28T11:47:55.607Z,935.95
2017-07-28T11:49:09.004Z,935.7
2017-07-28T11:50:22.393Z,935.98
2017-07-28T11:51:35.191Z,936.04
2017-07-28T11:52:49.098Z,936.04
2017-07-28T11:54:03.022Z,935.99
2017-07-28T11:55:16.938Z,936.01
2017-07-28T11:56:30.874Z,935.95
2017-07-28T11:57:44.853Z,935.96
2017-07-28T11:58:58.789Z,935.97
2017-07-28T12:00:12.129Z,935.97
2017-07-28T12:01:25.570Z,935.79
2017-07-28T12:02:40.028Z,936.05
2017-07-28T12:03:53.966Z,936.04
2017-07-28T12:05:07.919Z,936.14
2017-07-28T12:06:21.286Z,936.13
2017-07-28T12:07:35.214Z,936.13
2017-07-28T12:08:48.574Z,936.18
2017-07-28T12:10:02.505Z,936.13
2017-07-28T12:11:15.881Z,936.24
2017-07-28T12:12:29.808Z,936.28
2017-07-28T12:13:43.204Z,936.28
2017-07-28T12:14:56.581Z,936.35
2017-07-28T12:16:10.491Z,936.29
2017-07-28T12:17:24.383Z,936.16
2017-07-28T12:18:38.338Z,936.25
2017-07-28T12:19:52.261Z,936.21
2017-07-28T12:21:05.620Z,936.35
2017-07-28T12:22:30.087Z,936.28
2017-07-28T12:23:44.050Z,936.21
2017-07-28T12:24:57.407Z,936.36
2017-07-28T12:26:10.775Z,936.29
2017-07-28T12:27:24.649Z,936.38
2017-07-28T12:28:38.623Z,936.43
2017-07-28T12:29:52.583Z,936.41
2017-07-28T12:31:06.524Z,936.23
2017-07-28T12:32:19.898Z,936.44
2017-07-28T12:33:33.855Z,936.41
2017-07-28T12:34:47.796Z,936.46
2017-07-28T12:36:01.364Z,936.34
2017-07-28T12:37:15.306Z,936.36
2017-07-28T12:38:28.720Z,936.42
2017-07-28T12:39:41.573Z,936.33
2017-07-28T12:40:55.518Z,936.39
2017-07-28T12:42:08.885Z,936.47
2017-07-28T12:43:22.297Z,936.51
2017-07-28T12:44:36.286Z,936.45
2017-07-28T12:45:49.682Z,936.43
2017-07-28T12:47:03.054Z,936.5
2017-07-28T12:48:15.882Z,936.48
2017-07-28T12:49:29.834Z,936.46
2017-07-28T12:50:43.760Z,936.48
2017-07-28T12:51:57.670Z,936.47
2017-07-28T12:53:11.785Z,936.45
2017-07-28T12:54:25.147Z,936.46
2017-07-28T12:55:39.169Z,936.42
2017-07-28T12:56:53.138Z,936.48
2017-07-28T12:58:06.090Z,936.48
2017-07-28T12:59:20.018Z,936.45
2017-07-28T13:00:33.989Z,936.48
2017-07-28T13:01:47.910Z,936.46
2017-07-28T13:03:00.672Z,936.4
2017-07-28T13:04:14.639Z,936.41
2017-07-28T13:05:27.999Z,936.44
2017-07-28T13:06:41.936Z,936.37
2017-07-28T13:07:55.336Z,936.48
2017-07-28T13:09:09.311Z,936.33
2017-07-28T13:10:22.702Z,936.41
2017-07-28T13:11:36.648Z,936.41
2017-07-28T13:12:49.451Z,936.49
2017-07-28T13:14:03.386Z,936.36
2017-07-28T13:15:16.769Z,936.38
2017-07-28T13:16:30.697Z,936.43
2017-07-28T13:17:44.045Z,936.36
2017-07-28T13:18:57.995Z,936.37
2017-07-28T13:20:11.333Z,936.37
2017-07-28T13:21:24.722Z,936.43
2017-07-28T13:22:38.194Z,936.35
2017-07-28T13:23:52.144Z,936.42
2017-07-28T13:25:06.061Z,936.37
2017-07-28T13:26:18.901Z,936.4
2017-07-28T13:27:32.277Z,936.33
2017-07-28T13:28:46.300Z,936.34
2017-07-28T13:29:59.661Z,936.32
2017-07-28T13:31:13.657Z,936.4
2017-07-28T13:32:27.603Z,936.33
2017-07-28T13:33:40.967Z,936.35
2017-07-28T13:34:54.915Z,936.3
2017-07-28T13:36:08.860Z,936.35
2017-07-28T13:37:22.774Z,936.33
2017-07-28T13:38:36.162Z,936.4
2017-07-28T13:39:50.129Z,936.3
2017-07-28T13:41:04.059Z,936.27
2017-07-28T13:42:17.454Z,936.31
2017-07-28T13:43:30.838Z,936.32
2017-07-28T13:44:47.098Z,936.32
2017-07-28T13:46:02.637Z,936.26
2017-07-28T13:47:17.426Z,936.29
2017-07-28T13:48:31.380Z,936.29
2017-07-28T13:49:47.909Z,936.26
2017-07-28T13:51:05.658Z,936.26
2017-07-28T13:52:19.007Z,936.27
2017-07-28T13:53:35.095Z,936.29
2017-07-28T13:54:49.009Z,936.29
2017-07-28T13:56:06.704Z,936.3
2017-07-28T13:57:20.937Z,936.29
